sensor_id;sensor_type;location;lat;lon;timestamp;pressure;altitude;pressure_sealevel;temperature;humidity
55068;BME280;40965;52.368;9.712;2023-08-21T00:00:38;101545.13;;;19.62;95.96
55068;BME280;40965;52.368;9.712;2023-08-21T00:03:05;101545.25;;;19.59;96.38
55068;BME280;40965;52.368;9.712;2023-08-21T00:05:32;101536.41;;;19.58;96.77
55068;BME280;40965;52.368;9.712;2023-08-21T00:07:58;101538.34;;;19.53;96.66
55068;BME280;40965;52.368;9.712;2023-08-21T00:10:25;101534.00;;;19.50;96.82
55068;BME280;40965;52.368;9.712;2023-08-21T00:12:52;101532.38;;;19.46;96.98
55068;BME280;40965;52.368;9.712;2023-08-21T00:15:19;101536.00;;;19.44;97.46
55068;BME280;40965;52.368;9.712;2023-08-21T00:17:45;101538.78;;;19.39;97.94
55068;BME280;40965;52.368;9.712;2023-08-21T00:20:13;101533.59;;;19.36;98.08
55068;BME280;40965;52.368;9.712;2023-08-21T00:22:39;101538.13;;;19.32;98.31
55068;BME280;40965;52.368;9.712;2023-08-21T00:25:09;101538.16;;;19.31;98.68
55068;BME280;40965;52.368;9.712;2023-08-21T00:27:35;101542.66;;;19.29;98.76
55068;BME280;40965;52.368;9.712;2023-08-21T00:30:02;101533.03;;;19.25;98.80
55068;BME280;40965;52.368;9.712;2023-08-21T00:32:31;101529.66;;;19.20;99.33
55068;BME280;40965;52.368;9.712;2023-08-21T00:34:58;101538.47;;;19.20;99.31
55068;BME280;40965;52.368;9.712;2023-08-21T00:37:24;101535.03;;;19.18;98.88
55068;BME280;40965;52.368;9.712;2023-08-21T00:39:51;101522.72;;;19.15;98.51
55068;BME280;40965;52.368;9.712;2023-08-21T00:42:17;101523.63;;;19.14;98.12
55068;BME280;40965;52.368;9.712;2023-08-21T00:44:44;101515.78;;;19.11;98.18
55068;BME280;40965;52.368;9.712;2023-08-21T00:47:11;101515.78;;;19.10;97.78
55068;BME280;40965;52.368;9.712;2023-08-21T00:49:37;101515.09;;;19.05;97.80
55068;BME280;40965;52.368;9.712;2023-08-21T00:52:07;101509.91;;;19.00;97.65
55068;BME280;40965;52.368;9.712;2023-08-21T00:54:35;101511.91;;;18.93;98.18
55068;BME280;40965;52.368;9.712;2023-08-21T00:57:01;101504.03;;;18.89;98.45
55068;BME280;40965;52.368;9.712;2023-08-21T00:59:29;101506.78;;;18.85;98.56
55068;BME280;40965;52.368;9.712;2023-08-21T01:01:56;101519.22;;;18.83;98.47
55068;BME280;40965;52.368;9.712;2023-08-21T01:04:23;101522.81;;;18.81;98.59
55068;BME280;40965;52.368;9.712;2023-08-21T01:06:50;101523.72;;;18.81;98.31
55068;BME280;40965;52.368;9.712;2023-08-21T01:11:56;101527.38;;;18.76;99.21
55068;BME280;40965;52.368;9.712;2023-08-21T01:14:51;101530.25;;;18.68;98.96
55068;BME280;40965;52.368;9.712;2023-08-21T01:17:23;101524.22;;;18.63;99.36
55068;BME280;40965;52.368;9.712;2023-08-21T01:19:51;101519.97;;;18.57;99.85
55068;BME280;40965;52.368;9.712;2023-08-21T01:22:19;101517.47;;;18.52;100.00
55068;BME280;40965;52.368;9.712;2023-08-21T01:24:45;101513.97;;;18.50;100.00
55068;BME280;40965;52.368;9.712;2023-08-21T01:27:13;101517.53;;;18.49;100.00
55068;BME280;40965;52.368;9.712;2023-08-21T01:29:40;101517.53;;;18.49;100.00
55068;BME280;40965;52.368;9.712;2023-08-21T01:32:23;101510.44;;;18.51;100.00
55068;BME280;40965;52.368;9.712;2023-08-21T01:34:55;101517.59;;;18.48;99.69
55068;BME280;40965;52.368;9.712;2023-08-21T01:37:24;101511.44;;;18.46;99.94
55068;BME280;40965;52.368;9.712;2023-08-21T01:39:51;101514.16;;;18.44;100.00
55068;BME280;40965;52.368;9.712;2023-08-21T01:42:17;101526.53;;;18.44;99.84
55068;BME280;40965;52.368;9.712;2023-08-21T01:44:44;101529.25;;;18.42;100.00
55068;BME280;40965;52.368;9.712;2023-08-21T01:47:12;101529.25;;;18.42;100.00
55068;BME280;40965;52.368;9.712;2023-08-21T01:49:38;101525.72;;;18.42;99.77
55068;BME280;40965;52.368;9.712;2023-08-21T01:52:05;101526.63;;;18.41;99.77
55068;BME280;40965;52.368;9.712;2023-08-21T01:54:31;101533.84;;;18.35;100.00
55068;BME280;40965;52.368;9.712;2023-08-21T01:56:58;101530.47;;;18.30;99.77
55068;BME280;40965;52.368;9.712;2023-08-21T01:59:25;101530.56;;;18.26;100.00
55068;BME280;40965;52.368;9.712;2023-08-21T02:01:51;101530.72;;;18.19;100.00
55068;BME280;40965;52.368;9.712;2023-08-21T02:04:19;101531.72;;;18.15;100.00
55068;BME280;40965;52.368;9.712;2023-08-21T02:06:45;101530.03;;;18.13;100.00
55068;BME280;40965;52.368;9.712;2023-08-21T02:09:12;101518.56;;;18.12;100.00
55068;BME280;40965;52.368;9.712;2023-08-21T02:11:38;101523.81;;;18.14;100.00
55068;BME280;40965;52.368;9.712;2023-08-21T02:14:05;101517.66;;;18.13;100.00
55068;BME280;40965;52.368;9.712;2023-08-21T02:16:32;101521.97;;;18.16;100.00
55068;BME280;40965;52.368;9.712;2023-08-21T02:18:59;101525.53;;;18.16;100.00
55068;BME280;40965;52.368;9.712;2023-08-21T02:21:25;101525.53;;;18.16;100.00
55068;BME280;40965;52.368;9.712;2023-08-21T02:23:52;101520.28;;;18.15;100.00
55068;BME280;40965;52.368;9.712;2023-08-21T02:26:19;101516.81;;;18.11;100.00
55068;BME280;40965;52.368;9.712;2023-08-21T02:28:46;101522.22;;;18.08;100.00
55068;BME280;40965;52.368;9.712;2023-08-21T02:31:12;101538.16;;;18.05;100.00
55068;BME280;40965;52.368;9.712;2023-08-21T02:33:39;101534.72;;;18.03;100.00
55068;BME280;40965;52.368;9.712;2023-08-21T02:36:06;101535.53;;;18.05;100.00
55068;BME280;40965;52.368;9.712;2023-08-21T02:38:33;101531.13;;;18.04;100.00
55068;BME280;40965;52.368;9.712;2023-08-21T02:41:00;101532.91;;;18.04;100.00
55068;BME280;40965;52.368;9.712;2023-08-21T02:43:26;101544.34;;;18.06;100.00
55068;BME280;40965;52.368;9.712;2023-08-21T02:45:54;101538.16;;;18.05;100.00
55068;BME280;40965;52.368;9.712;2023-08-21T02:48:21;101533.75;;;18.06;100.00
55068;BME280;40965;52.368;9.712;2023-08-21T02:50:48;101536.44;;;18.04;100.00
55068;BME280;40965;52.368;9.712;2023-08-21T02:53:15;101534.72;;;18.01;100.00
55068;BME280;40965;52.368;9.712;2023-08-21T02:55:42;101536.44;;;18.04;100.00
55068;BME280;40965;52.368;9.712;2023-08-21T02:58:08;101530.22;;;18.05;100.00
55068;BME280;40965;52.368;9.712;2023-08-21T03:00:35;101524.94;;;18.05;100.00
55068;BME280;40965;52.368;9.712;2023-08-21T03:03:02;101527.47;;;18.10;100.00
55068;BME280;40965;52.368;9.712;2023-08-21T03:05:30;101536.28;;;18.10;100.00
55068;BME280;40965;52.368;9.712;2023-08-21T03:07:56;101530.94;;;18.12;100.00
55068;BME280;40965;52.368;9.712;2023-08-21T03:10:24;101533.63;;;18.10;100.00
55068;BME280;40965;52.368;9.712;2023-08-21T03:12:52;101530.19;;;18.07;99.88
55068;BME280;40965;52.368;9.712;2023-08-21T03:15:19;101526.66;;;18.06;100.00
55068;BME280;40965;52.368;9.712;2023-08-21T03:17:45;101529.31;;;18.06;100.00
55068;BME280;40965;52.368;9.712;2023-08-21T03:20:12;101531.97;;;18.06;100.00
55068;BME280;40965;52.368;9.712;2023-08-21T03:22:40;101530.16;;;18.08;99.80
55068;BME280;40965;52.368;9.712;2023-08-21T03:25:07;101527.41;;;18.11;99.65
55068;BME280;40965;52.368;9.712;2023-08-21T03:27:35;101528.31;;;18.10;99.44
55068;BME280;40965;52.368;9.712;2023-08-21T03:30:06;101539.06;;;18.06;99.42
55068;BME280;40965;52.368;9.712;2023-08-21T03:32:33;101538.25;;;18.02;99.75
55068;BME280;40965;52.368;9.712;2023-08-21T03:35:00;101545.47;;;17.97;99.86
55068;BME280;40965;52.368;9.712;2023-08-21T03:37:28;101533.22;;;17.93;100.00
55068;BME280;40965;52.368;9.712;2023-08-21T03:39:54;101536.81;;;17.89;100.00
55068;BME280;40965;52.368;9.712;2023-08-21T03:42:22;101539.41;;;17.90;100.00
55068;BME280;40965;52.368;9.712;2023-08-21T03:44:49;101539.41;;;17.90;100.00
55068;BME280;40965;52.368;9.712;2023-08-21T03:47:16;101543.81;;;17.90;100.00
55068;BME280;40965;52.368;9.712;2023-08-21T03:49:43;101540.28;;;17.91;100.00
55068;BME280;40965;52.368;9.712;2023-08-21T03:52:09;101539.25;;;17.98;100.00
55068;BME280;40965;52.368;9.712;2023-08-21T03:54:36;101545.16;;;18.08;99.65
55068;BME280;40965;52.368;9.712;2023-08-21T03:57:03;101540.66;;;18.11;99.49
55068;BME280;40965;52.368;9.712;2023-08-21T03:59:30;101542.41;;;18.12;99.50
55068;BME280;40965;52.368;9.712;2023-08-21T04:01:57;101535.41;;;18.10;99.52
55068;BME280;40965;52.368;9.712;2023-08-21T04:04:23;101537.22;;;18.08;99.40
55068;BME280;40965;52.368;9.712;2023-08-21T04:06:50;101530.19;;;18.07;99.49
55068;BME280;40965;52.368;9.712;2023-08-21T04:09:17;101537.38;;;18.03;99.48
55068;BME280;40965;52.368;9.712;2023-08-21T04:11:43;101532.97;;;18.02;99.33
55068;BME280;40965;52.368;9.712;2023-08-21T04:14:10;101540.16;;;17.97;99.92
55068;BME280;40965;52.368;9.712;2023-08-21T04:16:39;101541.19;;;17.90;100.00
55068;BME280;40965;52.368;9.712;2023-08-21T04:19:06;101543.19;;;17.80;100.00
55068;BME280;40965;52.368;9.712;2023-08-21T04:21:34;101552.16;;;17.74;100.00
55068;BME280;40965;52.368;9.712;2023-08-21T04:24:01;101554.03;;;17.69;100.00
55068;BME280;40965;52.368;9.712;2023-08-21T04:26:28;101553.28;;;17.65;100.00
55068;BME280;40965;52.368;9.712;2023-08-21T04:28:54;101552.41;;;17.63;100.00
55068;BME280;40965;52.368;9.712;2023-08-21T04:31:21;101557.66;;;17.65;100.00
55068;BME280;40965;52.368;9.712;2023-08-21T04:33:48;101564.56;;;17.72;100.00
55068;BME280;40965;52.368;9.712;2023-08-21T04:36:15;101560.00;;;17.79;100.00
55068;BME280;40965;52.368;9.712;2023-08-21T04:38:43;101560.66;;;17.89;100.00
55068;BME280;40965;52.368;9.712;2023-08-21T04:41:12;101558.75;;;17.95;100.00
55068;BME280;40965;52.368;9.712;2023-08-21T04:43:40;101549.00;;;17.96;100.00
55068;BME280;40965;52.368;9.712;2023-08-21T04:46:07;101551.63;;;17.97;100.00
55068;BME280;40965;52.368;9.712;2023-08-21T04:48:34;101552.50;;;17.96;100.00
55068;BME280;40965;52.368;9.712;2023-08-21T04:51:01;101551.63;;;17.97;100.00
55068;BME280;40965;52.368;9.712;2023-08-21T04:53:28;101548.78;;;18.05;100.00
55068;BME280;40965;52.368;9.712;2023-08-21T04:55:55;101553.81;;;18.14;99.75
55068;BME280;40965;52.368;9.712;2023-08-21T04:58:24;101560.72;;;18.22;98.94
55068;BME280;40965;52.368;9.712;2023-08-21T05:00:51;101566.72;;;18.28;98.56
55068;BME280;40965;52.368;9.712;2023-08-21T05:03:18;101564.78;;;18.35;98.27
55068;BME280;40965;52.368;9.712;2023-08-21T05:05:54;101561.22;;;18.36;97.81
55068;BME280;40965;52.368;9.712;2023-08-21T05:08:25;101567.44;;;18.35;97.82
55068;BME280;40965;52.368;9.712;2023-08-21T05:10:56;101569.25;;;18.33;98.04
55068;BME280;40965;52.368;9.712;2023-08-21T05:13:25;101571.97;;;18.30;98.02
55068;BME280;40965;52.368;9.712;2023-08-21T05:15:53;101576.31;;;18.32;98.03
55068;BME280;40965;52.368;9.712;2023-08-21T05:18:21;101574.59;;;18.31;97.88
55068;BME280;40965;52.368;9.712;2023-08-21T05:20:49;101577.22;;;18.31;97.87
55068;BME280;40965;52.368;9.712;2023-08-21T05:23:16;101566.78;;;18.27;97.75
55068;BME280;40965;52.368;9.712;2023-08-21T05:25:47;101567.72;;;18.24;98.02
55068;BME280;40965;52.368;9.712;2023-08-21T05:28:15;101567.88;;;18.18;98.20
55068;BME280;40965;52.368;9.712;2023-08-21T05:30:42;101575.03;;;18.14;98.84
55068;BME280;40965;52.368;9.712;2023-08-21T05:33:10;101572.47;;;18.11;98.92
55068;BME280;40965;52.368;9.712;2023-08-21T05:35:36;101576.97;;;18.08;99.06
55068;BME280;40965;52.368;9.712;2023-08-21T05:38:04;101581.31;;;18.10;98.97
55068;BME280;40965;52.368;9.712;2023-08-21T05:40:31;101583.06;;;18.11;99.31
55068;BME280;40965;52.368;9.712;2023-08-21T05:42:57;101581.25;;;18.13;99.12
55068;BME280;40965;52.368;9.712;2023-08-21T05:45:24;101586.56;;;18.13;99.14
55068;BME280;40965;52.368;9.712;2023-08-21T05:47:50;101585.56;;;18.16;99.07
55068;BME280;40965;52.368;9.712;2023-08-21T05:50:17;101588.97;;;18.21;99.00
55068;BME280;40965;52.368;9.712;2023-08-21T05:52:46;101591.63;;;18.23;98.94
55068;BME280;40965;52.368;9.712;2023-08-21T05:55:13;101591.47;;;18.27;98.68
55068;BME280;40965;52.368;9.712;2023-08-21T05:57:40;101593.13;;;18.33;98.64
55068;BME280;40965;52.368;9.712;2023-08-21T06:00:07;101594.56;;;18.45;98.12
55068;BME280;40965;52.368;9.712;2023-08-21T06:02:34;101599.38;;;18.63;97.70
55068;BME280;40965;52.368;9.712;2023-08-21T06:05:01;101590.66;;;18.91;96.38
55068;BME280;40965;52.368;9.712;2023-08-21T06:07:28;101599.47;;;19.23;95.06
55068;BME280;40965;52.368;9.712;2023-08-21T06:09:55;101601.31;;;19.49;93.93
55068;BME280;40965;52.368;9.712;2023-08-21T06:12:21;101603.38;;;19.68;92.57
55068;BME280;40965;52.368;9.712;2023-08-21T06:14:48;101607.41;;;19.81;92.21
55068;BME280;40965;52.368;9.712;2023-08-21T06:17:14;101602.47;;;19.97;91.46
55068;BME280;40965;52.368;9.712;2023-08-21T06:19:41;101599.34;;;20.11;90.72
55068;BME280;40965;52.368;9.712;2023-08-21T06:22:08;101601.13;;;20.11;90.78
55068;BME280;40965;52.368;9.712;2023-08-21T06:24:34;101605.28;;;20.20;90.25
55068;BME280;40965;52.368;9.712;2023-08-21T06:27:01;101612.03;;;20.30;90.14
55068;BME280;40965;52.368;9.712;2023-08-21T06:29:28;101607.19;;;20.41;89.38
55068;BME280;40965;52.368;9.712;2023-08-21T06:31:55;101606.44;;;20.63;88.86
55068;BME280;40965;52.368;9.712;2023-08-21T06:34:21;101596.31;;;20.74;88.21
55068;BME280;40965;52.368;9.712;2023-08-21T06:36:48;101601.72;;;20.71;87.54
55068;BME280;40965;52.368;9.712;2023-08-21T06:39:14;101596.47;;;20.70;88.11
55068;BME280;40965;52.368;9.712;2023-08-21T06:41:41;101607.59;;;20.81;88.04
55068;BME280;40965;52.368;9.712;2023-08-21T06:44:07;101613.84;;;21.04;86.76
55068;BME280;40965;52.368;9.712;2023-08-21T06:46:34;101608.56;;;21.26;85.64
55068;BME280;40965;52.368;9.712;2023-08-21T06:49:01;101607.81;;;21.46;84.83
55068;BME280;40965;52.368;9.712;2023-08-21T06:51:28;101617.06;;;21.81;83.90
55068;BME280;40965;52.368;9.712;2023-08-21T06:53:55;101617.00;;;22.26;81.55
55068;BME280;40965;52.368;9.712;2023-08-21T06:56:22;101617.22;;;22.42;81.07
55068;BME280;40965;52.368;9.712;2023-08-21T06:58:48;101620.34;;;22.31;80.33
55068;BME280;40965;52.368;9.712;2023-08-21T07:01:15;101624.41;;;22.19;80.37
55068;BME280;40965;52.368;9.712;2023-08-21T07:03:42;101626.50;;;22.11;81.12
55068;BME280;40965;52.368;9.712;2023-08-21T07:06:08;101627.63;;;22.05;81.77
55068;BME280;40965;52.368;9.712;2023-08-21T07:08:35;101623.38;;;22.01;81.23
55068;BME280;40965;52.368;9.712;2023-08-21T07:11:03;101617.13;;;22.02;81.55
55068;BME280;40965;52.368;9.712;2023-08-21T07:13:30;101613.81;;;22.18;80.23
55068;BME280;40965;52.368;9.712;2023-08-21T07:15:57;101617.97;;;22.45;80.00
55068;BME280;40965;52.368;9.712;2023-08-21T07:18:27;101620.06;;;22.78;79.02
55068;BME280;40965;52.368;9.712;2023-08-21T07:20:54;101613.16;;;23.14;77.45
55068;BME280;40965;52.368;9.712;2023-08-21T07:23:20;101619.00;;;23.41;75.19
55068;BME280;40965;52.368;9.712;2023-08-21T07:25:47;101618.75;;;23.65;74.06
55068;BME280;40965;52.368;9.712;2023-08-21T07:28:14;101618.22;;;24.13;71.82
55068;BME280;40965;52.368;9.712;2023-08-21T07:30:42;101624.28;;;24.51;68.88
55068;BME280;40965;52.368;9.712;2023-08-21T07:33:08;101624.44;;;24.66;67.92
55068;BME280;40965;52.368;9.712;2023-08-21T07:35:35;101628.91;;;24.83;67.02
55068;BME280;40965;52.368;9.712;2023-08-21T07:38:02;101632.84;;;24.75;66.89
55068;BME280;40965;52.368;9.712;2023-08-21T07:40:29;101639.50;;;24.68;67.39
55068;BME280;40965;52.368;9.712;2023-08-21T07:42:56;101636.00;;;24.49;68.33
55068;BME280;40965;52.368;9.712;2023-08-21T07:45:23;101641.13;;;24.36;68.14
55068;BME280;40965;52.368;9.712;2023-08-21T07:47:49;101642.31;;;24.30;67.98
55068;BME280;40965;52.368;9.712;2023-08-21T07:50:16;101635.31;;;24.27;67.30
55068;BME280;40965;52.368;9.712;2023-08-21T07:52:42;101639.31;;;24.36;66.53
55068;BME280;40965;52.368;9.712;2023-08-21T07:55:09;101640.44;;;24.67;65.55
55068;BME280;40965;52.368;9.712;2023-08-21T07:57:36;101640.69;;;24.96;64.09
55068;BME280;40965;52.368;9.712;2023-08-21T08:00:03;101644.97;;;25.32;62.42
55068;BME280;40965;52.368;9.712;2023-08-21T08:02:33;101644.91;;;25.50;61.08
55068;BME280;40965;52.368;9.712;2023-08-21T08:05:00;101646.13;;;25.60;59.94
55068;BME280;40965;52.368;9.712;2023-08-21T08:07:28;101651.94;;;25.68;59.85
55068;BME280;40965;52.368;9.712;2023-08-21T08:09:56;101644.78;;;25.19;59.17
55068;BME280;40965;52.368;9.712;2023-08-21T08:12:22;101650.81;;;24.73;61.62
55068;BME280;40965;52.368;9.712;2023-08-21T08:14:50;101648.38;;;24.69;62.05
55068;BME280;40965;52.368;9.712;2023-08-21T08:17:17;101653.47;;;25.07;61.39
55068;BME280;40965;52.368;9.712;2023-08-21T08:19:43;101639.44;;;25.83;58.78
55068;BME280;40965;52.368;9.712;2023-08-21T08:22:10;101631.91;;;26.06;57.04
55068;BME280;40965;52.368;9.712;2023-08-21T08:24:37;101638.00;;;25.78;58.57
55068;BME280;40965;52.368;9.712;2023-08-21T08:27:03;101640.91;;;25.89;57.94
55068;BME280;40965;52.368;9.712;2023-08-21T08:29:30;101640.16;;;26.48;55.77
55068;BME280;40965;52.368;9.712;2023-08-21T08:31:57;101638.13;;;26.96;54.21
55068;BME280;40965;52.368;9.712;2023-08-21T08:34:23;101643.97;;;27.17;53.39
55068;BME280;40965;52.368;9.712;2023-08-21T08:36:50;101637.06;;;27.28;53.27
55068;BME280;40965;52.368;9.712;2023-08-21T08:39:16;101647.09;;;27.53;50.24
55068;BME280;40965;52.368;9.712;2023-08-21T08:41:50;101634.84;;;27.76;49.01
55068;BME280;40965;52.368;9.712;2023-08-21T08:44:24;101646.06;;;27.41;48.73
55068;BME280;40965;52.368;9.712;2023-08-21T08:46:52;101638.41;;;27.06;49.92
55068;BME280;40965;52.368;9.712;2023-08-21T08:49:20;101629.09;;;26.97;50.26
55068;BME280;40965;52.368;9.712;2023-08-21T08:51:50;101634.47;;;26.23;51.90
55068;BME280;40965;52.368;9.712;2023-08-21T08:54:20;101645.25;;;26.07;52.56
55068;BME280;40965;52.368;9.712;2023-08-21T08:56:48;101644.94;;;27.72;48.32
55068;BME280;40965;52.368;9.712;2023-08-21T08:59:14;101633.75;;;28.72;46.09
55068;BME280;40965;52.368;9.712;2023-08-21T09:01:41;101635.88;;;28.41;47.01
55068;BME280;40965;52.368;9.712;2023-08-21T09:04:08;101645.63;;;28.03;48.18
55068;BME280;40965;52.368;9.712;2023-08-21T09:06:35;101638.53;;;27.88;48.39
55068;BME280;40965;52.368;9.712;2023-08-21T09:09:03;101642.75;;;27.92;48.46
55068;BME280;40965;52.368;9.712;2023-08-21T09:11:30;101638.97;;;27.95;48.02
55068;BME280;40965;52.368;9.712;2023-08-21T09:13:58;101631.56;;;27.98;47.46
55068;BME280;40965;52.368;9.712;2023-08-21T09:16:27;101638.03;;;27.96;46.73
55068;BME280;40965;52.368;9.712;2023-08-21T09:18:57;101623.50;;;28.38;45.08
55068;BME280;40965;52.368;9.712;2023-08-21T09:21:25;101619.41;;;29.10;43.08
55068;BME280;40965;52.368;9.712;2023-08-21T09:23:57;101618.63;;;30.07;40.95
55068;BME280;40965;52.368;9.712;2023-08-21T09:26:24;101618.06;;;29.90;39.99
55068;BME280;40965;52.368;9.712;2023-08-21T09:28:53;101619.06;;;29.02;41.84
55068;BME280;40965;52.368;9.712;2023-08-21T09:31:24;101619.91;;;28.25;43.63
55068;BME280;40965;52.368;9.712;2023-08-21T09:33:57;101619.38;;;28.07;44.51
55068;BME280;40965;52.368;9.712;2023-08-21T09:36:26;101618.06;;;27.85;44.71
55068;BME280;40965;52.368;9.712;2023-08-21T09:38:54;101617.31;;;27.83;45.53
55068;BME280;40965;52.368;9.712;2023-08-21T09:41:23;101629.72;;;27.99;44.69
55068;BME280;40965;52.368;9.712;2023-08-21T09:43:51;101627.22;;;28.10;43.91
55068;BME280;40965;52.368;9.712;2023-08-21T09:46:26;101619.66;;;28.02;43.96
55068;BME280;40965;52.368;9.712;2023-08-21T09:48:54;101625.31;;;27.85;44.88
55068;BME280;40965;52.368;9.712;2023-08-21T09:51:21;101621.53;;;27.87;44.74
55068;BME280;40965;52.368;9.712;2023-08-21T09:53:53;101628.50;;;28.04;44.24
55068;BME280;40965;52.368;9.712;2023-08-21T09:56:23;101619.28;;;28.60;42.74
55068;BME280;40965;52.368;9.712;2023-08-21T09:58:51;101625.88;;;28.95;42.39
55068;BME280;40965;52.368;9.712;2023-08-21T10:01:20;101620.25;;;29.11;42.49
55068;BME280;40965;52.368;9.712;2023-08-21T10:03:47;101626.84;;;28.94;41.74
55068;BME280;40965;52.368;9.712;2023-08-21T10:06:17;101628.91;;;28.64;41.32
55068;BME280;40965;52.368;9.712;2023-08-21T10:08:46;101639.31;;;28.43;39.96
55068;BME280;40965;52.368;9.712;2023-08-21T10:11:13;101633.50;;;27.96;41.64
55068;BME280;40965;52.368;9.712;2023-08-21T10:13:40;101638.69;;;27.99;42.07
55068;BME280;40965;52.368;9.712;2023-08-21T10:16:07;101630.56;;;27.86;40.97
55068;BME280;40965;52.368;9.712;2023-08-21T10:18:37;101634.22;;;27.58;40.71
55068;BME280;40965;52.368;9.712;2023-08-21T10:21:18;101634.00;;;27.61;40.56
55068;BME280;40965;52.368;9.712;2023-08-21T10:23:48;101635.28;;;27.55;39.45
55068;BME280;40965;52.368;9.712;2023-08-21T10:26:21;101640.78;;;27.54;39.85
55068;BME280;40965;52.368;9.712;2023-08-21T10:28:53;101639.06;;;27.38;41.08
55068;BME280;40965;52.368;9.712;2023-08-21T10:31:35;101642.53;;;26.97;41.79
55068;BME280;40965;52.368;9.712;2023-08-21T10:34:07;101636.28;;;26.68;42.87
55068;BME280;40965;52.368;9.712;2023-08-21T10:39:14;101631.31;;;26.31;43.90
55068;BME280;40965;52.368;9.712;2023-08-21T10:41:55;101631.22;;;26.33;44.64
55068;BME280;40965;52.368;9.712;2023-08-21T10:44:35;101632.63;;;26.54;43.33
55068;BME280;40965;52.368;9.712;2023-08-21T10:49:54;101616.50;;;28.36;39.08
55068;BME280;40965;52.368;9.712;2023-08-21T10:52:30;101617.81;;;28.82;38.15
55068;BME280;40965;52.368;9.712;2023-08-21T10:55:11;101607.56;;;29.85;36.32
55068;BME280;40965;52.368;9.712;2023-08-21T10:57:39;101621.94;;;30.57;35.29
55068;BME280;40965;52.368;9.712;2023-08-21T11:00:15;101623.97;;;29.95;34.85
55068;BME280;40965;52.368;9.712;2023-08-21T11:02:48;101623.06;;;30.19;35.69
55068;BME280;40965;52.368;9.712;2023-08-21T11:05:17;101624.66;;;30.68;35.58
55068;BME280;40965;52.368;9.712;2023-08-21T11:07:46;101621.44;;;30.05;36.71
55068;BME280;40965;52.368;9.712;2023-08-21T11:10:15;101621.16;;;29.97;37.10
55068;BME280;40965;52.368;9.712;2023-08-21T11:12:51;101614.75;;;30.33;35.89
55068;BME280;40965;52.368;9.712;2023-08-21T11:15:20;101615.44;;;30.71;36.03
55068;BME280;40965;52.368;9.712;2023-08-21T11:17:58;101614.53;;;31.50;33.39
55068;BME280;40965;52.368;9.712;2023-08-21T11:20:34;101601.88;;;32.37;32.45
55068;BME280;40965;52.368;9.712;2023-08-21T11:23:05;101599.69;;;32.52;31.98
55068;BME280;40965;52.368;9.712;2023-08-21T11:25:33;101602.19;;;33.05;31.22
55068;BME280;40965;52.368;9.712;2023-08-21T11:28:01;101606.53;;;32.77;31.79
55068;BME280;40965;52.368;9.712;2023-08-21T11:30:30;101611.41;;;31.98;32.88
55068;BME280;40965;52.368;9.712;2023-08-21T11:33:08;101623.28;;;31.42;32.83
55068;BME280;40965;52.368;9.712;2023-08-21T11:35:38;101616.56;;;30.68;34.20
55068;BME280;40965;52.368;9.712;2023-08-21T11:38:05;101613.16;;;30.31;34.56
55068;BME280;40965;52.368;9.712;2023-08-21T11:40:35;101619.31;;;29.73;35.69
55068;BME280;40965;52.368;9.712;2023-08-21T11:43:03;101615.06;;;29.20;36.81
55068;BME280;40965;52.368;9.712;2023-08-21T11:45:30;101621.22;;;28.97;37.02
55068;BME280;40965;52.368;9.712;2023-08-21T11:48:00;101618.34;;;28.74;37.61
55068;BME280;40965;52.368;9.712;2023-08-21T11:50:28;101614.66;;;28.49;38.29
55068;BME280;40965;52.368;9.712;2023-08-21T11:52:55;101617.81;;;28.95;38.14
55068;BME280;40965;52.368;9.712;2023-08-21T11:55:22;101614.06;;;29.21;37.73
55068;BME280;40965;52.368;9.712;2023-08-21T11:57:50;101606.53;;;29.27;37.79
55068;BME280;40965;52.368;9.712;2023-08-21T12:00:18;101605.03;;;30.66;36.00
55068;BME280;40965;52.368;9.712;2023-08-21T12:02:59;101611.03;;;30.70;35.76
55068;BME280;40965;52.368;9.712;2023-08-21T12:05:29;101613.72;;;30.12;37.06
55068;BME280;40965;52.368;9.712;2023-08-21T12:07:56;101603.75;;;29.77;37.53
55068;BME280;40965;52.368;9.712;2023-08-21T12:10:27;101613.09;;;29.35;38.22
55068;BME280;40965;52.368;9.712;2023-08-21T12:12:55;101617.16;;;29.41;38.73
55068;BME280;40965;52.368;9.712;2023-08-21T12:15:22;101609.44;;;29.24;39.00
55068;BME280;40965;52.368;9.712;2023-08-21T12:17:49;101595.19;;;28.84;39.90
55068;BME280;40965;52.368;9.712;2023-08-21T12:20:16;101591.97;;;28.66;40.80
55068;BME280;40965;52.368;9.712;2023-08-21T12:22:42;101599.34;;;28.63;40.64
55068;BME280;40965;52.368;9.712;2023-08-21T12:25:09;101603.91;;;28.88;39.99
55068;BME280;40965;52.368;9.712;2023-08-21T12:27:36;101604.19;;;28.58;39.92
55068;BME280;40965;52.368;9.712;2023-08-21T12:30:04;101605.44;;;28.66;40.02
55068;BME280;40965;52.368;9.712;2023-08-21T12:32:33;101608.94;;;30.51;37.24
55068;BME280;40965;52.368;9.712;2023-08-21T12:34:59;101605.81;;;32.11;34.16
55068;BME280;40965;52.368;9.712;2023-08-21T12:37:26;101604.09;;;32.74;33.08
55068;BME280;40965;52.368;9.712;2023-08-21T12:39:54;101608.72;;;31.66;34.10
55068;BME280;40965;52.368;9.712;2023-08-21T12:42:20;101614.84;;;31.13;35.09
55068;BME280;40965;52.368;9.712;2023-08-21T12:44:47;101605.44;;;31.83;34.23
55068;BME280;40965;52.368;9.712;2023-08-21T12:47:13;101600.03;;;33.69;31.98
55068;BME280;40965;52.368;9.712;2023-08-21T12:49:40;101592.84;;;34.27;29.60
55068;BME280;40965;52.368;9.712;2023-08-21T12:52:07;101600.53;;;34.51;29.68
55068;BME280;40965;52.368;9.712;2023-08-21T12:54:33;101599.88;;;34.00;30.20
55068;BME280;40965;52.368;9.712;2023-08-21T12:57:00;101606.91;;;35.53;28.49
55068;BME280;40965;52.368;9.712;2023-08-21T12:59:27;101592.91;;;36.02;27.12